Time;durP1;ratioP1;P1;durP2;ratioP2;P2;SDS_P1;SDS_P2;PMS_P1;PMS_P2;Temp;Humidity;BMP_temperature;BMP_pressure;BME280_temperature;BME280_humidity;BME280_pressure;Samples;Min_cycle;Max_cycle;Signal;HPM_P1;HPM_P2
2023/10/12 00:01:05;;;;;;;;;;;;;;;;;;;;;
2023/10/12 00:07:28;;;;;;;;;;;;;;;;;;;;;
2023/10/12 00:11:27;;;;;;;;;;;;;;;;;;;;;
2023/10/12 00:23:52;;;;;;;1910.93;999.90;;;13.60;99.90;;;;;;4684416;30;20084;-93
2023/10/12 00:27:40;;;;;;;;;;;;;;;;;;;;;
2023/10/12 00:37:54;;;;;;;1923.75;999.90;;;13.50;99.90;;;;;;4701854;30;20106;-92
2023/10/12 00:43:49;;;;;;;1905.97;999.90;;;13.50;99.90;;;;;;4688062;30;20071;-91
2023/10/12 00:47:47;;;;;;;1788.20;999.90;;;13.60;99.90;;;;;;4716119;30;20135;-91
2023/10/12 00:53:59;;;;;;;1900.72;999.90;;;13.50;99.90;;;;;;4702810;30;20064;-91
2023/10/12 01:07:06;;;;;;;1567.25;999.90;;;13.50;99.90;;;;;;4727506;30;20064;-91
2023/10/12 01:10:30;;;;;;;;;;;;;;;;;;;;;
2023/10/12 01:17:42;;;;;;;1704.43;999.90;;;13.60;99.90;;;;;;4742414;30;20060;-92
2023/10/12 01:31:13;;;;;;;1898.32;999.90;;;13.40;99.90;;;;;;4666401;30;20064;-91
2023/10/12 01:34:24;;;;;;;1936.53;999.90;;;13.30;99.90;;;;;;4734839;30;20109;-91
2023/10/12 01:44:56;;;;;;;1796.10;999.90;;;13.50;99.90;;;;;;4695207;30;20048;-92
2023/10/12 01:59:31;;;;;;;;;;;;;;;;;;;;;
2023/10/12 02:06:34;;;;;;;1664.00;999.90;;;13.10;99.90;;;;;;4652300;30;20432;-93
2023/10/12 02:13:44;;;;;;;;;;;;;;;;;;;;;
2023/10/12 02:21:20;;;;;;;1667.65;999.90;;;13.00;99.90;;;;;;4636929;30;20498;-92
2023/10/12 02:34:53;;;;;;;;;;;;;;;;;;;;;
2023/10/12 02:38:51;;;;;;;;;;;;;;;;;;;;;
2023/10/12 02:57:53;;;;;;;1868.35;999.90;;;12.10;99.90;;;;;;4667369;30;19927;-92
2023/10/12 03:00:27;;;;;;;;;;;;;;;;;;;;;
2023/10/12 03:14:27;;;;;;;1956.30;999.90;;;12.30;99.90;;;;;;4898065;24;20072;-92
2023/10/12 03:17:23;;;;;;;;;;;;;;;;;;;;;
2023/10/12 03:21:47;;;;;;;1999.90;999.90;;;12.20;99.90;;;;;;4771353;30;20118;-92
2023/10/12 03:35:00;;;;;;;1929.07;999.90;;;12.20;99.90;;;;;;4703769;30;20053;-92
2023/10/12 03:38:12;;;;;;;1903.68;999.90;;;12.20;99.90;;;;;;4697111;30;20060;-93
2023/10/12 03:42:41;;;;;;;1977.60;999.90;;;12.20;99.90;;;;;;4708607;30;20132;-92
2023/10/12 03:45:10;;;;;;;1999.90;999.90;;;12.20;99.90;;;;;;4744389;30;20059;-93
2023/10/12 04:01:29;;;;;;;1999.90;999.90;;;12.30;99.90;;;;;;4745044;30;20052;-92
2023/10/12 04:18:09;;;;;;;;;;;;;;;;;;;;;
2023/10/12 04:27:50;;;;;;;1999.90;999.90;;;12.00;99.90;;;;;;4821812;24;20120;-91
2023/10/12 04:38:56;;;;;;;1936.50;999.90;;;11.80;99.90;;;;;;4724161;29;19925;-91
2023/10/12 04:44:46;;;;;;;;;;;;;;;;;;;;;
2023/10/12 04:48:31;;;;;;;1949.65;999.90;;;11.50;99.90;;;;;;4758209;30;20408;-91
2023/10/12 04:55:59;;;;;;;1895.35;999.90;;;11.90;99.90;;;;;;4680625;30;20057;-91
2023/10/12 05:03:00;;;;;;;1999.90;999.90;;;11.60;99.90;;;;;;4727771;30;20062;-91
2023/10/12 05:26:35;;;;;;;;;;;;;;;;;;;;;
2023/10/12 05:40:13;;;;;;;1999.90;999.90;;;11.00;99.90;;;;;;4732782;30;20063;-92
2023/10/12 05:50:15;;;;;;;1999.90;999.90;;;10.60;99.90;;;;;;4751499;30;20101;-92
2023/10/12 05:53:26;;;;;;;1999.90;999.90;;;10.70;99.90;;;;;;4735455;30;20086;-91
2023/10/12 05:56:40;;;;;;;1999.90;999.90;;;10.40;99.90;;;;;;4722029;29;20063;-92
2023/10/12 06:00:27;;;;;;;;;;;;;;;;;;;;;
2023/10/12 06:03:49;;;;;;;;;;;;;;;;;;;;;
2023/10/12 06:10:53;;;;;;;1999.90;999.90;;;10.50;99.90;;;;;;4729941;30;20055;-92
2023/10/12 06:13:59;;;;;;;1999.90;999.90;;;10.30;99.90;;;;;;4743800;30;20047;-92
2023/10/12 06:17:30;;;;;;;1999.90;999.90;;;10.20;99.90;;;;;;4736260;30;20479;-93
2023/10/12 06:24:48;;;;;;;1999.90;999.90;;;10.40;99.90;;;;;;4684207;30;20046;-92
2023/10/12 06:26:54;;;;;;;1999.90;999.90;;;10.30;99.90;;;;;;4725382;30;20067;-93
2023/10/12 06:29:37;;;;;;;1999.90;999.90;;;10.30;99.90;;;;;;4757316;30;20063;-93
2023/10/12 06:32:39;;;;;;;1999.90;999.90;;;10.30;99.90;;;;;;4740347;30;20052;-92
2023/10/12 06:42:26;;;;;;;1999.90;999.90;;;10.40;99.90;;;;;;4721047;30;20067;-94
2023/10/12 06:56:27;;;;;;;1999.90;999.90;;;10.40;99.90;;;;;;4728938;30;20067;-94
2023/10/12 07:07:36;;;;;;;;;;;;;;;;;;;;;
2023/10/12 07:15:50;;;;;;;;;;;;;;;;;;;;;
2023/10/12 07:23:25;;;;;;;;;;;;;;;;;;;;;
2023/10/12 07:30:08;;;;;;;1999.90;999.90;;;11.10;99.90;;;;;;4748153;30;20051;-93
2023/10/12 07:33:52;;;;;;;1999.90;999.90;;;11.40;99.90;;;;;;4750115;30;20259;-94
2023/10/12 07:35:50;;;;;;;1999.90;999.90;;;11.60;99.90;;;;;;4749287;30;20501;-92
2023/10/12 07:38:34;;;;;;;1967.97;999.90;;;11.70;99.90;;;;;;4750668;30;20128;-94
2023/10/12 07:41:01;;;;;;;1826.32;999.90;;;11.90;99.90;;;;;;4742633;30;20063;-95
2023/10/12 07:43:32;;;;;;;1976.80;999.90;;;12.00;99.90;;;;;;4753965;30;20564;-94
2023/10/12 07:46:12;;;;;;;1782.53;999.90;;;12.10;99.90;;;;;;4753388;30;20056;-95
2023/10/12 07:48:42;;;;;;;1987.75;999.90;;;12.30;99.90;;;;;;4739213;30;20071;-94
2023/10/12 07:51:15;;;;;;;1736.65;999.90;;;12.40;99.90;;;;;;4755995;30;20055;-94
2023/10/12 07:53:49;;;;;;;1959.05;999.90;;;12.50;99.90;;;;;;4753974;30;20062;-94
2023/10/12 07:56:32;;;;;;;1887.80;999.90;;;12.40;99.90;;;;;;4750481;30;20093;-94
2023/10/12 07:59:23;;;;;;;1889.32;999.90;;;12.60;99.90;;;;;;4739137;30;20052;-94
2023/10/12 08:05:18;;;;;;;1860.13;999.90;;;12.80;99.90;;;;;;4766501;30;20060;-94
2023/10/12 08:13:39;;;;;;;1750.95;999.90;;;12.80;99.90;;;;;;4768776;30;20059;-94
2023/10/12 08:16:37;;;;;;;1771.47;999.90;;;12.80;99.90;;;;;;4754827;30;20043;-95
2023/10/12 08:21:33;;;;;;;1756.20;999.90;;;12.90;99.90;;;;;;4766262;30;20416;-95
2023/10/12 08:24:23;;;;;;;1840.10;999.90;;;12.90;99.90;;;;;;4741502;30;20798;-95
2023/10/12 08:27:21;;;;;;;;;;;;;;;;;;;;;
2023/10/12 08:30:22;;;;;;;1616.57;999.90;;;13.10;99.90;;;;;;4766290;30;20086;-94
2023/10/12 08:33:48;;;;;;;1445.07;999.90;;;13.20;99.90;;;;;;4741444;30;20455;-94
2023/10/12 08:39:37;;;;;;;1393.85;976.42;;;13.30;99.90;;;;;;4773681;30;20053;-95
2023/10/12 08:42:36;;;;;;;1366.75;974.83;;;13.40;99.90;;;;;;4715217;30;20082;-94
2023/10/12 08:45:10;;;;;;;1405.53;973.13;;;13.40;99.90;;;;;;4752330;30;20087;-95
2023/10/12 08:47:44;;;;;;;1431.65;997.25;;;13.40;99.90;;;;;;4731660;30;20606;-94
2023/10/12 08:53:34;;;;;;;1224.72;951.58;;;13.60;99.90;;;;;;4767103;30;20131;-94
2023/10/12 08:56:21;;;;;;;1279.28;953.70;;;13.60;99.90;;;;;;4752589;30;20193;-94
2023/10/12 08:59:11;;;;;;;1174.75;930.10;;;13.70;99.90;;;;;;4750681;30;20131;-94
2023/10/12 09:02:19;;;;;;;1156.43;884.15;;;13.70;99.90;;;;;;4763438;30;20586;-94
2023/10/12 09:04:39;;;;;;;1130.65;886.70;;;13.80;99.90;;;;;;4764271;30;20063;-94
2023/10/12 09:07:21;;;;;;;1135.38;889.67;;;13.80;99.90;;;;;;4766606;30;20060;-94
2023/10/12 09:09:55;;;;;;;1114.28;891.03;;;13.90;99.90;;;;;;4751545;30;20048;-94
2023/10/12 09:12:47;;;;;;;1100.72;871.45;;;13.90;99.90;;;;;;4760609;30;20576;-95
2023/10/12 09:15:45;;;;;;;1198.32;907.95;;;14.00;99.90;;;;;;4734069;30;20060;-94
2023/10/12 09:18:18;;;;;;;1097.35;871.35;;;13.80;99.90;;;;;;4734531;30;20131;-94
2023/10/12 09:23:29;;;;;;;1032.65;862.55;;;14.20;99.90;;;;;;4756490;30;20063;-94
2023/10/12 09:26:16;;;;;;;1039.15;863.60;;;14.30;99.90;;;;;;4749623;30;20055;-94
2023/10/12 09:36:54;;;;;;;1114.00;880.55;;;14.60;99.90;;;;;;4765811;30;20605;-95
2023/10/12 09:39:25;;;;;;;1089.03;870.70;;;14.70;99.90;;;;;;4750774;30;20052;-93
2023/10/12 09:41:59;;;;;;;953.72;815.75;;;14.80;99.90;;;;;;4753089;30;20432;-93
2023/10/12 09:44:26;;;;;;;1030.50;839.03;;;14.70;99.90;;;;;;4747011;30;20078;-94
2023/10/12 09:46:59;;;;;;;1017.70;830.17;;;14.70;99.90;;;;;;4749284;30;20048;-94
2023/10/12 09:49:27;;;;;;;1001.28;818.38;;;14.70;99.90;;;;;;4741784;30;20052;-94
2023/10/12 09:51:59;;;;;;;1160.28;897.22;;;14.70;99.90;;;;;;4751010;30;20136;-94
2023/10/12 09:54:45;;;;;;;1130.03;880.77;;;14.60;99.90;;;;;;4742941;30;20115;-94
2023/10/12 09:57:23;;;;;;;1111.65;854.03;;;14.60;99.90;;;;;;4736901;30;20063;-93
2023/10/12 10:00:28;;;;;;;1147.65;895.22;;;14.30;99.90;;;;;;4734919;30;20067;-94
2023/10/12 10:02:59;;;;;;;1070.07;862.35;;;14.60;99.90;;;;;;4734540;30;20147;-88
2023/10/12 10:05:51;;;;;;;1043.47;832.25;;;14.60;99.90;;;;;;4734681;30;20056;-88
2023/10/12 10:08:19;;;;;;;1125.38;884.72;;;14.60;99.90;;;;;;4742710;30;20052;-89
2023/10/12 10:10:45;;;;;;;1068.00;841.30;;;14.60;99.90;;;;;;4735589;30;20062;-88
2023/10/12 10:13:46;;;;;;;1148.95;875.50;;;14.70;99.90;;;;;;4738809;30;20428;-87
2023/10/12 10:16:15;;;;;;;1004.85;831.60;;;14.70;99.90;;;;;;4753493;30;20751;-89
2023/10/12 10:18:46;;;;;;;1090.38;877.80;;;14.80;99.90;;;;;;4759701;30;20389;-88
2023/10/12 10:21:15;;;;;;;1079.22;869.83;;;14.80;99.90;;;;;;4754371;30;20117;-89
2023/10/12 10:23:48;;;;;;;974.00;824.05;;;14.70;99.90;;;;;;4746280;30;20500;-88
2023/10/12 10:26:19;;;;;;;1075.82;865.65;;;14.70;99.90;;;;;;4749168;30;20480;-88
2023/10/12 10:28:55;;;;;;;1037.13;847.95;;;14.70;99.90;;;;;;4755832;30;20048;-88
2023/10/12 10:31:31;;;;;;;1093.57;884.83;;;14.80;99.90;;;;;;4747373;30;20065;-88
2023/10/12 10:34:01;;;;;;;953.03;827.55;;;14.80;99.90;;;;;;4736798;30;20159;-89
2023/10/12 10:36:34;;;;;;;954.47;847.55;;;15.00;99.90;;;;;;4759370;30;20105;-88
2023/10/12 10:39:04;;;;;;;;;;;15.10;99.90;;;;;;4744199;30;20035;-87
2023/10/12 10:41:45;;;;;;;1402.38;937.75;;;15.10;99.90;;;;;;4744595;30;20567;-88
2023/10/12 10:44:22;;;;;;;1149.88;893.47;;;15.20;99.90;;;;;;4746715;30;20051;-88
2023/10/12 10:46:57;;;;;;;916.30;817.60;;;15.20;99.90;;;;;;4757111;30;20055;-88
2023/10/12 10:49:28;;;;;;;1038.78;874.90;;;15.30;99.90;;;;;;4747044;30;20055;-87
2023/10/12 10:52:02;;;;;;;1212.90;898.88;;;15.20;99.90;;;;;;4765217;30;20047;-87
2023/10/12 10:54:29;;;;;;;1267.93;901.88;;;15.30;99.90;;;;;;4753822;30;20043;-87
2023/10/12 10:56:58;;;;;;;1106.20;874.22;;;15.30;99.90;;;;;;4750962;30;20055;-89
2023/10/12 10:59:24;;;;;;;1056.90;874.97;;;15.30;99.90;;;;;;4761504;30;20154;-87
2023/10/12 11:01:51;;;;;;;1063.70;884.80;;;15.30;99.90;;;;;;4748437;30;20464;-87
2023/10/12 11:04:41;;;;;;;971.80;854.53;;;15.40;99.90;;;;;;4748673;30;20120;-87
2023/10/12 11:07:12;;;;;;;919.92;817.47;;;15.30;99.90;;;;;;4747821;30;20113;-89
2023/10/12 11:12:31;;;;;;;1095.88;873.92;;;15.40;99.90;;;;;;4741638;30;20114;-86
2023/10/12 11:15:00;;;;;;;1216.82;939.85;;;15.30;99.90;;;;;;4751936;30;20043;-88
2023/10/12 11:17:30;;;;;;;1128.15;917.42;;;15.20;99.90;;;;;;4755363;30;20066;-89
2023/10/12 11:19:58;;;;;;;1069.00;847.50;;;15.20;99.90;;;;;;4757771;30;20117;-88
2023/10/12 11:22:24;;;;;;;1200.80;893.72;;;15.10;99.90;;;;;;4758657;30;20126;-87
2023/10/12 11:24:50;;;;;;;947.10;842.63;;;15.10;99.90;;;;;;4765611;30;20139;-87
2023/10/12 11:27:34;;;;;;;973.70;849.85;;;15.20;99.90;;;;;;4758786;30;20075;-86
2023/10/12 11:30:06;;;;;;;958.35;834.30;;;15.10;99.90;;;;;;4761465;30;20090;-87
2023/10/12 11:32:33;;;;;;;949.00;844.30;;;15.20;99.90;;;;;;4758508;30;20052;-88
2023/10/12 11:35:02;;;;;;;973.90;835.50;;;15.20;99.90;;;;;;4748335;30;20059;-90
2023/10/12 11:37:38;;;;;;;1037.90;848.85;;;15.30;99.90;;;;;;4746945;30;20532;-87
2023/10/12 11:40:07;;;;;;;907.13;811.47;;;15.30;99.90;;;;;;4747001;30;20367;-89
2023/10/12 11:42:32;;;;;;;1037.55;864.92;;;15.40;99.90;;;;;;4744038;30;20381;-87
2023/10/12 11:45:06;;;;;;;987.38;863.90;;;15.50;99.90;;;;;;4755661;30;20131;-87
2023/10/12 11:47:37;;;;;;;1025.78;899.38;;;15.50;99.90;;;;;;4733214;30;20044;-87
2023/10/12 11:50:09;;;;;;;992.22;872.30;;;15.60;99.90;;;;;;4769282;30;20083;-86
2023/10/12 11:52:37;;;;;;;1138.68;936.45;;;15.70;99.90;;;;;;4738671;30;20505;-86
2023/10/12 11:55:06;;;;;;;832.33;747.13;;;15.80;99.90;;;;;;4749217;30;20128;-87
2023/10/12 11:57:32;;;;;;;986.72;873.20;;;15.90;99.90;;;;;;4743656;30;20104;-87
2023/10/12 11:59:58;;;;;;;907.88;812.40;;;15.90;99.90;;;;;;4746898;30;20059;-88
2023/10/12 12:02:27;;;;;;;1045.30;897.17;;;16.00;99.90;;;;;;4748852;30;20052;-89
2023/10/12 12:04:52;;;;;;;1090.65;914.67;;;16.10;99.90;;;;;;4746904;30;20051;-87
2023/10/12 12:07:20;;;;;;;1048.57;884.50;;;16.20;99.90;;;;;;4748761;30;20051;-88
2023/10/12 12:09:48;;;;;;;1149.75;932.75;;;16.20;99.90;;;;;;4762403;30;20450;-88
2023/10/12 12:12:16;;;;;;;1187.78;922.63;;;16.10;99.90;;;;;;4764687;30;20087;-88
2023/10/12 12:14:47;;;;;;;1118.72;905.00;;;16.10;99.90;;;;;;4747485;30;20484;-88
2023/10/12 12:17:20;;;;;;;1011.13;874.90;;;16.00;99.90;;;;;;4754718;30;20087;-88
2023/10/12 12:19:45;;;;;;;1091.82;911.55;;;15.90;99.90;;;;;;4734765;30;20474;-88
2023/10/12 12:22:13;;;;;;;904.72;809.22;;;15.90;99.90;;;;;;4733150;30;20067;-88
2023/10/12 12:24:44;;;;;;;961.40;842.20;;;15.90;99.90;;;;;;4749264;30;20046;-86
2023/10/12 12:29:57;;;;;;;811.30;730.60;;;15.90;99.90;;;;;;4739183;30;20056;-85
2023/10/12 12:32:27;;;;;;;887.08;794.10;;;15.90;99.90;;;;;;4749906;30;20683;-87
2023/10/12 12:34:55;;;;;;;845.70;755.83;;;15.90;99.90;;;;;;4747163;30;20425;-88
2023/10/12 12:37:26;;;;;;;939.97;838.40;;;15.90;99.90;;;;;;4737233;30;20481;-88
2023/10/12 12:42:39;;;;;;;909.13;811.42;;;15.90;99.90;;;;;;4752550;30;20052;-87
2023/10/12 12:45:06;;;;;;;918.88;821.10;;;15.90;99.90;;;;;;4757450;30;20129;-86
2023/10/12 12:47:32;;;;;;;980.20;860.97;;;15.90;99.90;;;;;;4740192;30;20113;-86
2023/10/12 12:50:03;;;;;;;896.22;802.22;;;16.00;99.90;;;;;;4745972;30;20056;-87
2023/10/12 12:52:29;;;;;;;1024.28;881.38;;;16.00;99.90;;;;;;4735058;30;20129;-86
2023/10/12 12:54:55;;;;;;;965.10;859.97;;;16.00;99.90;;;;;;4745940;30;20513;-86
2023/10/12 12:57:23;;;;;;;998.03;881.20;;;16.00;99.90;;;;;;4746734;30;20135;-86
2023/10/12 12:59:49;;;;;;;1019.88;873.28;;;16.00;99.90;;;;;;4731197;30;20078;-86
2023/10/12 13:02:14;;;;;;;1044.20;897.95;;;16.00;99.90;;;;;;4732355;30;20458;-87
2023/10/12 13:04:40;;;;;;;915.67;818.17;;;16.10;99.90;;;;;;4745158;30;20569;-86
2023/10/12 13:07:09;;;;;;;905.15;808.83;;;16.00;99.90;;;;;;4745851;30;20425;-86
2023/10/12 13:09:36;;;;;;;927.17;826.03;;;16.00;99.90;;;;;;4743796;30;20138;-87
2023/10/12 13:12:05;;;;;;;938.28;837.65;;;16.00;99.90;;;;;;4748722;30;20056;-86
2023/10/12 13:14:32;;;;;;;946.22;841.03;;;16.10;99.90;;;;;;4747569;30;20051;-86
2023/10/12 13:16:58;;;;;;;952.40;847.45;;;15.90;99.90;;;;;;4748068;30;20171;-87
2023/10/12 13:19:24;;;;;;;986.15;867.47;;;15.90;99.90;;;;;;4746548;30;20504;-86
2023/10/12 13:21:51;;;;;;;914.92;816.35;;;15.90;99.90;;;;;;4723042;30;20044;-86
2023/10/12 13:24:16;;;;;;;845.35;758.38;;;15.90;99.90;;;;;;4744183;30;20447;-85
2023/10/12 13:26:43;;;;;;;868.97;776.60;;;15.90;99.90;;;;;;4745538;30;20124;-85
2023/10/12 13:29:13;;;;;;;834.65;748.67;;;15.90;99.90;;;;;;4728660;30;20107;-85
2023/10/12 13:31:39;;;;;;;866.55;774.35;;;15.90;99.90;;;;;;4742418;30;20090;-86
2023/10/12 13:34:05;;;;;;;902.25;805.28;;;15.90;99.90;;;;;;4743499;30;20059;-85
2023/10/12 13:36:33;;;;;;;850.47;762.83;;;15.90;99.90;;;;;;4746240;30;20052;-86
2023/10/12 13:38:59;;;;;;;916.60;820.03;;;15.90;99.90;;;;;;4744702;30;20459;-86
2023/10/12 13:41:26;;;;;;;902.80;806.70;;;15.80;99.90;;;;;;4746329;30;20093;-85
2023/10/12 13:43:52;;;;;;;928.10;827.38;;;15.80;99.90;;;;;;4733093;30;20066;-85
2023/10/12 13:46:18;;;;;;;909.42;812.25;;;15.80;99.90;;;;;;4735106;30;20082;-85
2023/10/12 13:48:47;;;;;;;856.03;767.60;;;15.70;99.90;;;;;;4728289;30;20065;-85
2023/10/12 13:51:20;;;;;;;834.40;746.85;;;15.70;99.90;;;;;;4756792;30;20071;-86
2023/10/12 13:53:50;;;;;;;863.50;773.92;;;15.70;99.90;;;;;;4747606;30;20070;-86
2023/10/12 13:56:18;;;;;;;936.17;817.20;;;15.60;99.90;;;;;;4748524;30;20052;-86
2023/10/12 13:58:44;;;;;;;1126.65;882.40;;;15.60;99.90;;;;;;4751973;30;20048;-86
2023/10/12 14:01:14;;;;;;;1158.63;896.00;;;15.60;99.90;;;;;;4745370;30;20064;-86
2023/10/12 14:09:43;;;;;;;1166.68;892.95;;;15.40;99.90;;;;;;4774504;29;20082;-86
2023/10/12 14:12:10;;;;;;;1062.15;863.75;;;15.30;99.90;;;;;;4749293;30;20051;-86
2023/10/12 14:14:36;;;;;;;1305.80;921.67;;;15.30;99.90;;;;;;4745690;30;20048;-87
2023/10/12 14:17:04;;;;;;;1054.22;866.95;;;15.30;99.90;;;;;;4764109;30;20054;-87
2023/10/12 14:19:30;;;;;;;908.03;808.65;;;15.30;99.90;;;;;;4734303;30;20131;-88
2023/10/12 14:21:57;;;;;;;906.78;808.83;;;15.30;99.90;;;;;;4742647;30;20544;-87
2023/10/12 14:24:23;;;;;;;1213.10;912.70;;;15.30;99.90;;;;;;4734428;30;20047;-88
2023/10/12 14:26:50;;;;;;;1224.60;920.03;;;15.30;99.90;;;;;;4760794;30;20453;-88
2023/10/12 14:29:18;;;;;;;1302.20;936.88;;;15.30;99.90;;;;;;4754484;30;20059;-88
2023/10/12 14:31:45;;;;;;;1089.07;876.72;;;15.30;99.90;;;;;;4733586;30;20138;-88
2023/10/12 14:34:13;;;;;;;1203.10;904.92;;;15.30;99.90;;;;;;4746481;30;20059;-88
2023/10/12 14:36:41;;;;;;;1179.28;894.72;;;15.30;99.90;;;;;;4739754;30;20052;-88
2023/10/12 14:39:13;;;;;;;1112.60;884.97;;;15.30;99.90;;;;;;4777647;30;20119;-87
2023/10/12 14:41:39;;;;;;;1022.88;852.38;;;15.30;99.90;;;;;;4761591;30;20043;-88
2023/10/12 14:44:05;;;;;;;1184.60;889.55;;;15.20;99.90;;;;;;4738723;30;20115;-88
2023/10/12 14:46:31;;;;;;;1210.90;908.85;;;15.20;99.90;;;;;;4746650;30;20078;-87
2023/10/12 14:48:58;;;;;;;1123.43;877.38;;;15.20;99.90;;;;;;4731322;30;20048;-87
2023/10/12 14:51:29;;;;;;;1018.65;870.38;;;15.20;99.90;;;;;;4726612;30;20051;-90
2023/10/12 14:53:56;;;;;;;1146.28;906.00;;;15.10;99.90;;;;;;4734273;30;20137;-89
2023/10/12 14:56:27;;;;;;;1232.90;932.80;;;15.00;99.90;;;;;;4748496;30;20574;-88
2023/10/12 14:58:53;;;;;;;1239.60;935.42;;;14.90;99.90;;;;;;4731726;30;20060;-87
2023/10/12 15:01:21;;;;;;;1089.03;885.63;;;14.90;99.90;;;;;;4743270;30;20116;-87
2023/10/12 15:03:47;;;;;;;1022.47;881.45;;;14.80;99.90;;;;;;4748061;30;20066;-87
2023/10/12 15:06:13;;;;;;;1012.85;863.28;;;14.80;99.90;;;;;;4749293;30;20409;-88
2023/10/12 15:08:39;;;;;;;1104.28;901.28;;;14.70;99.90;;;;;;4728408;30;20060;-90
2023/10/12 15:11:07;;;;;;;1259.75;940.70;;;14.70;99.90;;;;;;4740222;30;20053;-88
2023/10/12 15:13:37;;;;;;;1402.65;985.60;;;14.60;99.90;;;;;;4761814;30;20083;-89
2023/10/12 15:16:11;;;;;;;1337.85;962.33;;;14.60;99.90;;;;;;4745887;30;20094;-87
2023/10/12 15:18:41;;;;;;;1345.15;964.90;;;14.60;99.90;;;;;;4728637;30;20693;-88
2023/10/12 15:21:10;;;;;;;1301.75;959.60;;;14.50;99.90;;;;;;4743215;30;20129;-87
2023/10/12 15:23:36;;;;;;;1321.65;952.83;;;14.50;99.90;;;;;;4729146;30;20064;-87
2023/10/12 15:26:01;;;;;;;1298.00;949.60;;;14.40;99.90;;;;;;4757324;30;20044;-88
2023/10/12 15:28:28;;;;;;;1338.40;965.72;;;14.40;99.90;;;;;;4728573;30;20469;-87
2023/10/12 15:30:54;;;;;;;1316.63;959.75;;;14.30;99.90;;;;;;4742251;30;20051;-84
2023/10/12 15:33:22;;;;;;;1320.35;970.65;;;14.20;99.90;;;;;;4745338;30;20052;-88
2023/10/12 15:35:49;;;;;;;1333.95;980.50;;;14.20;99.90;;;;;;4745875;30;20070;-87
2023/10/12 15:38:14;;;;;;;1327.63;975.80;;;14.10;99.90;;;;;;4736456;30;20411;-86
2023/10/12 15:40:41;;;;;;;1359.85;980.00;;;14.10;99.90;;;;;;4736613;30;20083;-87
2023/10/12 15:43:15;;;;;;;1353.63;989.15;;;14.00;99.90;;;;;;4733591;30;20091;-86
2023/10/12 15:45:43;;;;;;;1376.88;991.05;;;14.00;99.90;;;;;;4734397;30;20063;-86
2023/10/12 15:48:09;;;;;;;1349.78;969.75;;;13.90;99.90;;;;;;4744004;30;20502;-87
2023/10/12 15:50:35;;;;;;;1368.78;993.53;;;13.90;99.90;;;;;;4773062;30;20056;-87
2023/10/12 15:53:01;;;;;;;1373.03;989.65;;;13.80;99.90;;;;;;4718706;30;20445;-87
2023/10/12 15:55:27;;;;;;;1316.10;986.28;;;13.80;99.90;;;;;;4743732;30;20143;-86
2023/10/12 15:57:53;;;;;;;1406.47;999.88;;;13.80;99.90;;;;;;4745378;30;20112;-87
2023/10/12 16:00:22;;;;;;;1422.75;999.63;;;13.70;99.90;;;;;;4745928;30;20055;-86
2023/10/12 16:02:49;;;;;;;1476.13;999.90;;;13.70;99.90;;;;;;4737841;30;20064;-85
2023/10/12 16:05:16;;;;;;;1406.28;999.90;;;13.70;99.90;;;;;;4744034;30;20197;-86
2023/10/12 16:07:42;;;;;;;1395.32;997.80;;;13.70;99.90;;;;;;4735423;30;20060;-86
2023/10/12 16:10:09;;;;;;;1351.55;999.35;;;13.60;99.90;;;;;;4742423;30;20144;-86
2023/10/12 16:12:35;;;;;;;1478.40;999.90;;;13.60;99.90;;;;;;4750964;30;20536;-86
2023/10/12 16:15:02;;;;;;;1474.72;999.90;;;13.60;99.90;;;;;;4756049;30;20416;-86
2023/10/12 16:17:28;;;;;;;1361.38;987.42;;;13.50;99.90;;;;;;4749665;30;20044;-86
2023/10/12 16:19:54;;;;;;;1488.63;999.90;;;13.50;99.90;;;;;;4755575;30;20129;-86
2023/10/12 16:22:21;;;;;;;1399.38;999.90;;;13.50;99.90;;;;;;4738069;30;20126;-86
2023/10/12 16:24:47;;;;;;;1400.22;999.22;;;13.50;99.90;;;;;;4745251;30;20082;-87
2023/10/12 16:27:13;;;;;;;1405.85;998.67;;;13.50;99.90;;;;;;4739700;30;20056;-87
2023/10/12 16:29:40;;;;;;;1530.68;999.90;;;13.50;99.90;;;;;;4759917;30;20043;-88
2023/10/12 16:32:08;;;;;;;1569.50;999.90;;;13.50;99.90;;;;;;4759146;30;20051;-87
2023/10/12 16:34:34;;;;;;;1404.15;999.90;;;13.40;99.90;;;;;;4741241;30;20611;-89
2023/10/12 16:37:03;;;;;;;1401.85;999.90;;;13.40;99.90;;;;;;4762828;30;20047;-87
2023/10/12 16:39:29;;;;;;;1430.60;999.90;;;13.40;99.90;;;;;;4749838;30;20055;-87
2023/10/12 16:41:56;;;;;;;1402.88;999.90;;;13.40;99.90;;;;;;4747772;30;20055;-87
2023/10/12 16:44:24;;;;;;;1418.68;999.90;;;13.40;99.90;;;;;;4764516;30;20051;-87
2023/10/12 16:46:54;;;;;;;1377.70;999.20;;;13.40;99.90;;;;;;4748726;30;20055;-87
2023/10/12 16:49:22;;;;;;;1478.88;999.90;;;13.40;99.90;;;;;;4752958;30;20056;-87
2023/10/12 16:51:49;;;;;;;1463.65;999.90;;;13.40;99.90;;;;;;4745834;30;20048;-88
2023/10/12 16:54:16;;;;;;;1511.10;999.90;;;13.40;99.90;;;;;;4723850;30;20138;-88
2023/10/12 16:56:43;;;;;;;1420.65;999.90;;;13.40;99.90;;;;;;4736780;30;20088;-86
2023/10/12 16:59:15;;;;;;;1467.22;999.90;;;13.30;99.90;;;;;;4738199;30;20055;-88
2023/10/12 17:01:42;;;;;;;1538.00;999.90;;;13.30;99.90;;;;;;4726555;30;20366;-89
2023/10/12 17:04:18;;;;;;;1453.25;999.90;;;13.30;99.90;;;;;;4743201;30;20060;-89
2023/10/12 17:06:45;;;;;;;1415.13;999.90;;;13.30;99.90;;;;;;4733349;30;20047;-89
2023/10/12 17:09:13;;;;;;;1440.35;999.90;;;13.30;99.90;;;;;;4749648;30;20197;-88
2023/10/12 17:11:39;;;;;;;1428.93;999.90;;;13.30;99.90;;;;;;4744155;30;20048;-88
2023/10/12 17:14:06;;;;;;;1567.38;999.90;;;13.30;99.90;;;;;;4731872;30;20084;-89
2023/10/12 17:16:33;;;;;;;1450.50;999.90;;;13.30;99.90;;;;;;4739927;30;20134;-88
2023/10/12 17:19:00;;;;;;;1469.15;999.90;;;13.30;99.90;;;;;;4726118;30;20131;-90
2023/10/12 17:21:26;;;;;;;1513.60;999.90;;;13.30;99.90;;;;;;4736600;30;20475;-90
2023/10/12 17:23:51;;;;;;;1484.63;999.90;;;13.20;99.90;;;;;;4725613;30;20104;-93
2023/10/12 17:26:17;;;;;;;1447.38;999.90;;;13.30;99.90;;;;;;4739543;30;20386;-92
2023/10/12 17:28:43;;;;;;;1529.20;999.90;;;13.20;99.90;;;;;;4730359;30;20423;-91
2023/10/12 17:31:12;;;;;;;1558.15;999.90;;;13.20;99.90;;;;;;4747718;30;20142;-94
2023/10/12 17:33:38;;;;;;;1453.32;999.90;;;13.20;99.90;;;;;;4743870;30;20050;-95
2023/10/12 17:36:15;;;;;;;1519.05;999.90;;;13.20;99.90;;;;;;4738944;30;20071;-95
2023/10/12 17:38:47;;;;;;;1571.38;999.90;;;13.20;99.90;;;;;;4729988;30;20052;-95
2023/10/12 17:42:42;;;;;;;1514.13;999.90;;;13.20;99.90;;;;;;4741630;30;20118;-94
2023/10/12 17:45:08;;;;;;;1553.60;999.90;;;13.20;99.90;;;;;;4719957;30;20404;-94
2023/10/12 17:48:46;;;;;;;1452.38;999.90;;;13.20;99.90;;;;;;4749252;30;20059;-96
2023/10/12 17:51:21;;;;;;;;;;;13.20;99.90;;;;;;4737277;30;20442;-95
2023/10/12 17:53:54;;;;;;;1515.65;999.90;;;13.10;99.90;;;;;;4731267;30;19975;-96
2023/10/12 17:56:38;;;;;;;1590.63;999.90;;;13.70;99.90;;;;;;4734861;30;20064;-93
2023/10/12 17:59:07;;;;;;;1548.38;999.90;;;13.10;99.90;;;;;;4766954;24;20052;-94
2023/10/12 18:01:37;;;;;;;1548.32;999.90;;;13.10;99.90;;;;;;4754831;30;20887;-94
2023/10/12 18:04:22;;;;;;;1509.15;999.90;;;13.10;99.90;;;;;;4748325;30;20056;-94
2023/10/12 18:06:55;;;;;;;1605.25;999.90;;;13.20;99.90;;;;;;4741182;30;20165;-93
2023/10/12 18:09:43;;;;;;;1549.82;999.90;;;13.10;99.90;;;;;;4735188;30;20056;-95
2023/10/12 18:12:22;;;;;;;1497.18;999.90;;;13.10;99.90;;;;;;4751934;30;20055;-94
2023/10/12 18:15:36;;;;;;;;;;;;;;;;;;;;;
2023/10/12 18:19:59;;;;;;;1657.00;999.90;;;13.20;99.90;;;;;;4752807;30;20059;-92
2023/10/12 18:22:24;;;;;;;;;;;;;;;;;;;;;
2023/10/12 18:35:37;;;;;;;;;;;;;;;;;;;;;
2023/10/12 18:38:15;;;;;;;1531.78;999.90;;;13.00;99.90;;;;;;4748123;30;20649;-92
2023/10/12 18:41:36;;;;;;;1586.35;999.90;;;13.00;99.90;;;;;;4718234;30;20109;-93
2023/10/12 18:44:13;;;;;;;1532.43;999.90;;;13.10;99.90;;;;;;4717683;30;20089;-93
2023/10/12 18:46:53;;;;;;;1536.07;999.90;;;13.00;99.90;;;;;;4735471;30;20051;-93
2023/10/12 18:49:23;;;;;;;1583.85;999.90;;;13.00;99.90;;;;;;4737389;30;20135;-94
2023/10/12 18:51:59;;;;;;;1557.03;999.90;;;13.10;99.90;;;;;;4720690;30;20057;-94
2023/10/12 18:54:27;;;;;;;1503.88;999.90;;;13.10;99.90;;;;;;4736671;30;20056;-94
2023/10/12 18:56:55;;;;;;;1502.60;999.45;;;13.10;99.90;;;;;;4736350;30;20059;-92